sensor_id;sensor_type;location;lat;lon;timestamp;P1;durP1;ratioP1;P2;durP2;ratioP2
22907;SDS011;11620;50.050;8.690;2022-09-30T00:01:38;8.00;;;5.10;;
22907;SDS011;11620;50.050;8.690;2022-09-30T00:04:25;6.57;;;4.33;;
22907;SDS011;11620;50.050;8.690;2022-09-30T00:07:11;6.40;;;4.70;;
22907;SDS011;11620;50.050;8.690;2022-09-30T00:09:57;6.70;;;5.10;;
22907;SDS011;11620;50.050;8.690;2022-09-30T00:12:44;7.10;;;4.93;;
22907;SDS011;11620;50.050;8.690;2022-09-30T00:15:31;8.93;;;5.13;;
22907;SDS011;11620;50.050;8.690;2022-09-30T00:18:17;8.27;;;5.03;;
22907;SDS011;11620;50.050;8.690;2022-09-30T00:21:04;6.23;;;4.90;;
22907;SDS011;11620;50.050;8.690;2022-09-30T00:23:51;8.97;;;4.83;;
22907;SDS011;11620;50.050;8.690;2022-09-30T00:26:37;9.37;;;5.23;;
22907;SDS011;11620;50.050;8.690;2022-09-30T00:29:24;8.50;;;5.67;;
22907;SDS011;11620;50.050;8.690;2022-09-30T00:32:10;9.50;;;5.30;;
22907;SDS011;11620;50.050;8.690;2022-09-30T00:34:57;7.50;;;5.63;;
22907;SDS011;11620;50.050;8.690;2022-09-30T00:37:43;9.17;;;6.00;;
22907;SDS011;11620;50.050;8.690;2022-09-30T00:40:30;8.93;;;5.47;;
22907;SDS011;11620;50.050;8.690;2022-09-30T00:43:17;8.63;;;4.83;;
22907;SDS011;11620;50.050;8.690;2022-09-30T00:46:28;8.63;;;5.30;;
22907;SDS011;11620;50.050;8.690;2022-09-30T00:49:19;7.63;;;5.87;;
22907;SDS011;11620;50.050;8.690;2022-09-30T00:52:09;10.10;;;5.30;;
22907;SDS011;11620;50.050;8.690;2022-09-30T00:54:55;9.33;;;6.43;;
22907;SDS011;11620;50.050;8.690;2022-09-30T00:57:44;7.57;;;5.13;;
22907;SDS011;11620;50.050;8.690;2022-09-30T01:00:30;8.83;;;4.63;;
22907;SDS011;11620;50.050;8.690;2022-09-30T01:03:17;7.60;;;5.37;;
22907;SDS011;11620;50.050;8.690;2022-09-30T01:06:07;7.30;;;5.40;;
22907;SDS011;11620;50.050;8.690;2022-09-30T01:08:54;10.10;;;5.07;;
22907;SDS011;11620;50.050;8.690;2022-09-30T01:11:43;7.70;;;5.33;;
22907;SDS011;11620;50.050;8.690;2022-09-30T01:14:29;7.13;;;4.70;;
22907;SDS011;11620;50.050;8.690;2022-09-30T01:38:45;10.40;;;5.27;;
22907;SDS011;11620;50.050;8.690;2022-09-30T01:48:22;6.90;;;5.80;;
22907;SDS011;11620;50.050;8.690;2022-09-30T01:51:19;8.70;;;5.73;;
22907;SDS011;11620;50.050;8.690;2022-09-30T01:57:10;8.57;;;5.63;;
22907;SDS011;11620;50.050;8.690;2022-09-30T02:00:08;9.83;;;5.57;;
22907;SDS011;11620;50.050;8.690;2022-09-30T02:06:07;9.00;;;5.50;;
22907;SDS011;11620;50.050;8.690;2022-09-30T02:09:00;8.80;;;5.00;;
22907;SDS011;11620;50.050;8.690;2022-09-30T02:11:50;9.70;;;4.50;;
22907;SDS011;11620;50.050;8.690;2022-09-30T02:14:42;9.33;;;5.00;;
22907;SDS011;11620;50.050;8.690;2022-09-30T02:17:33;11.77;;;5.00;;
22907;SDS011;11620;50.050;8.690;2022-09-30T02:20:26;9.13;;;5.80;;
22907;SDS011;11620;50.050;8.690;2022-09-30T02:23:41;7.87;;;5.00;;
22907;SDS011;11620;50.050;8.690;2022-09-30T02:26:30;11.50;;;4.97;;
22907;SDS011;11620;50.050;8.690;2022-09-30T02:29:23;8.90;;;5.37;;
22907;SDS011;11620;50.050;8.690;2022-09-30T02:32:19;7.67;;;5.30;;
22907;SDS011;11620;50.050;8.690;2022-09-30T02:35:33;9.17;;;4.93;;
22907;SDS011;11620;50.050;8.690;2022-09-30T02:38:26;8.97;;;5.47;;
22907;SDS011;11620;50.050;8.690;2022-09-30T02:41:21;9.27;;;5.30;;
22907;SDS011;11620;50.050;8.690;2022-09-30T02:44:11;8.93;;;5.07;;
22907;SDS011;11620;50.050;8.690;2022-09-30T02:47:09;7.53;;;5.33;;
22907;SDS011;11620;50.050;8.690;2022-09-30T02:50:05;7.47;;;5.13;;
22907;SDS011;11620;50.050;8.690;2022-09-30T02:53:06;5.37;;;4.57;;
22907;SDS011;11620;50.050;8.690;2022-09-30T02:56:08;8.77;;;5.37;;
22907;SDS011;11620;50.050;8.690;2022-09-30T02:59:04;7.07;;;4.83;;
22907;SDS011;11620;50.050;8.690;2022-09-30T03:01:50;9.03;;;5.23;;
22907;SDS011;11620;50.050;8.690;2022-09-30T03:04:37;7.60;;;5.07;;
22907;SDS011;11620;50.050;8.690;2022-09-30T03:07:26;7.47;;;5.40;;
22907;SDS011;11620;50.050;8.690;2022-09-30T03:10:13;6.17;;;4.73;;
22907;SDS011;11620;50.050;8.690;2022-09-30T03:16:06;5.80;;;5.03;;
22907;SDS011;11620;50.050;8.690;2022-09-30T03:22:26;6.00;;;4.80;;
22907;SDS011;11620;50.050;8.690;2022-09-30T03:28:36;6.47;;;4.47;;
22907;SDS011;11620;50.050;8.690;2022-09-30T03:31:38;8.07;;;4.67;;
22907;SDS011;11620;50.050;8.690;2022-09-30T03:40:57;5.20;;;4.57;;
22907;SDS011;11620;50.050;8.690;2022-09-30T03:44:08;6.97;;;5.00;;
22907;SDS011;11620;50.050;8.690;2022-09-30T03:47:08;8.07;;;4.43;;
22907;SDS011;11620;50.050;8.690;2022-09-30T03:49:58;8.00;;;4.17;;
22907;SDS011;11620;50.050;8.690;2022-09-30T03:52:50;7.27;;;4.60;;
22907;SDS011;11620;50.050;8.690;2022-09-30T03:55:50;4.33;;;3.93;;
22907;SDS011;11620;50.050;8.690;2022-09-30T03:58:40;12.83;;;8.90;;
22907;SDS011;11620;50.050;8.690;2022-09-30T04:01:28;9.53;;;4.80;;
22907;SDS011;11620;50.050;8.690;2022-09-30T04:04:15;8.07;;;4.43;;
22907;SDS011;11620;50.050;8.690;2022-09-30T04:07:01;5.83;;;4.50;;
22907;SDS011;11620;50.050;8.690;2022-09-30T04:09:48;5.00;;;4.50;;
22907;SDS011;11620;50.050;8.690;2022-09-30T04:12:35;5.17;;;4.30;;
22907;SDS011;11620;50.050;8.690;2022-09-30T04:15:21;8.20;;;4.60;;
22907;SDS011;11620;50.050;8.690;2022-09-30T04:18:07;6.47;;;4.50;;
22907;SDS011;11620;50.050;8.690;2022-09-30T04:20:54;5.33;;;4.27;;
22907;SDS011;11620;50.050;8.690;2022-09-30T04:23:41;7.27;;;4.60;;
22907;SDS011;11620;50.050;8.690;2022-09-30T04:26:27;5.67;;;4.37;;
22907;SDS011;11620;50.050;8.690;2022-09-30T04:29:12;6.87;;;4.47;;
22907;SDS011;11620;50.050;8.690;2022-09-30T04:31:57;7.07;;;4.83;;
22907;SDS011;11620;50.050;8.690;2022-09-30T04:34:42;5.70;;;4.27;;
22907;SDS011;11620;50.050;8.690;2022-09-30T04:37:26;8.13;;;5.80;;
22907;SDS011;11620;50.050;8.690;2022-09-30T04:40:11;6.83;;;5.90;;
22907;SDS011;11620;50.050;8.690;2022-09-30T04:42:56;7.87;;;5.17;;
22907;SDS011;11620;50.050;8.690;2022-09-30T04:45:41;5.97;;;4.87;;
22907;SDS011;11620;50.050;8.690;2022-09-30T04:48:27;9.77;;;4.63;;
22907;SDS011;11620;50.050;8.690;2022-09-30T04:51:15;7.80;;;5.23;;
22907;SDS011;11620;50.050;8.690;2022-09-30T04:54:03;6.93;;;5.10;;
22907;SDS011;11620;50.050;8.690;2022-09-30T04:56:48;6.33;;;4.60;;
22907;SDS011;11620;50.050;8.690;2022-09-30T04:59:32;8.23;;;5.20;;
22907;SDS011;11620;50.050;8.690;2022-09-30T05:02:16;9.93;;;4.90;;
22907;SDS011;11620;50.050;8.690;2022-09-30T05:05:01;10.53;;;4.87;;
22907;SDS011;11620;50.050;8.690;2022-09-30T05:07:45;5.67;;;4.60;;
22907;SDS011;11620;50.050;8.690;2022-09-30T05:10:30;5.87;;;4.57;;
22907;SDS011;11620;50.050;8.690;2022-09-30T05:13:15;6.73;;;5.13;;
22907;SDS011;11620;50.050;8.690;2022-09-30T05:15:59;6.93;;;4.93;;
22907;SDS011;11620;50.050;8.690;2022-09-30T05:18:45;9.47;;;5.13;;
22907;SDS011;11620;50.050;8.690;2022-09-30T05:21:30;8.30;;;5.20;;
22907;SDS011;11620;50.050;8.690;2022-09-30T05:24:14;8.00;;;5.03;;
22907;SDS011;11620;50.050;8.690;2022-09-30T05:26:58;6.47;;;4.83;;
22907;SDS011;11620;50.050;8.690;2022-09-30T05:29:43;8.00;;;5.00;;
22907;SDS011;11620;50.050;8.690;2022-09-30T05:32:28;6.67;;;4.87;;
22907;SDS011;11620;50.050;8.690;2022-09-30T05:35:13;9.13;;;5.33;;
22907;SDS011;11620;50.050;8.690;2022-09-30T05:37:58;8.07;;;4.77;;
22907;SDS011;11620;50.050;8.690;2022-09-30T05:40:43;11.33;;;6.83;;
22907;SDS011;11620;50.050;8.690;2022-09-30T05:43:28;8.30;;;5.70;;
22907;SDS011;11620;50.050;8.690;2022-09-30T05:46:13;7.63;;;5.33;;
22907;SDS011;11620;50.050;8.690;2022-09-30T05:48:58;9.17;;;4.60;;
22907;SDS011;11620;50.050;8.690;2022-09-30T05:51:42;6.50;;;4.77;;
22907;SDS011;11620;50.050;8.690;2022-09-30T05:54:27;7.27;;;4.87;;
22907;SDS011;11620;50.050;8.690;2022-09-30T05:57:11;7.33;;;4.60;;
22907;SDS011;11620;50.050;8.690;2022-09-30T05:59:56;7.00;;;4.83;;
22907;SDS011;11620;50.050;8.690;2022-09-30T06:02:41;8.23;;;4.80;;
22907;SDS011;11620;50.050;8.690;2022-09-30T06:05:26;6.00;;;4.87;;
22907;SDS011;11620;50.050;8.690;2022-09-30T06:08:10;7.60;;;4.60;;
22907;SDS011;11620;50.050;8.690;2022-09-30T06:10:56;5.80;;;4.67;;
22907;SDS011;11620;50.050;8.690;2022-09-30T06:13:44;9.77;;;5.73;;
22907;SDS011;11620;50.050;8.690;2022-09-30T06:16:30;13.60;;;8.10;;
22907;SDS011;11620;50.050;8.690;2022-09-30T06:19:15;10.43;;;7.37;;
22907;SDS011;11620;50.050;8.690;2022-09-30T06:21:59;12.03;;;5.70;;
22907;SDS011;11620;50.050;8.690;2022-09-30T06:24:44;8.87;;;4.57;;
22907;SDS011;11620;50.050;8.690;2022-09-30T06:27:29;7.27;;;4.90;;
22907;SDS011;11620;50.050;8.690;2022-09-30T06:30:13;8.23;;;5.37;;
22907;SDS011;11620;50.050;8.690;2022-09-30T06:32:58;6.17;;;5.00;;
22907;SDS011;11620;50.050;8.690;2022-09-30T06:35:42;10.97;;;5.33;;
22907;SDS011;11620;50.050;8.690;2022-09-30T06:38:28;9.23;;;5.33;;
22907;SDS011;11620;50.050;8.690;2022-09-30T06:41:18;8.03;;;5.10;;
22907;SDS011;11620;50.050;8.690;2022-09-30T06:44:02;8.13;;;5.33;;
22907;SDS011;11620;50.050;8.690;2022-09-30T06:46:47;8.63;;;5.03;;
22907;SDS011;11620;50.050;8.690;2022-09-30T06:49:31;7.57;;;5.43;;
22907;SDS011;11620;50.050;8.690;2022-09-30T06:52:17;11.53;;;5.43;;
22907;SDS011;11620;50.050;8.690;2022-09-30T06:55:03;6.20;;;5.43;;
22907;SDS011;11620;50.050;8.690;2022-09-30T06:57:48;9.57;;;6.10;;
22907;SDS011;11620;50.050;8.690;2022-09-30T07:00:32;7.87;;;4.87;;
22907;SDS011;11620;50.050;8.690;2022-09-30T07:03:21;7.33;;;5.43;;
22907;SDS011;11620;50.050;8.690;2022-09-30T07:06:08;7.73;;;6.00;;
22907;SDS011;11620;50.050;8.690;2022-09-30T07:08:52;7.40;;;5.50;;
22907;SDS011;11620;50.050;8.690;2022-09-30T07:11:39;6.27;;;5.17;;
22907;SDS011;11620;50.050;8.690;2022-09-30T07:14:25;6.80;;;5.13;;
22907;SDS011;11620;50.050;8.690;2022-09-30T07:17:09;8.60;;;5.33;;
22907;SDS011;11620;50.050;8.690;2022-09-30T07:19:54;7.20;;;4.53;;
22907;SDS011;11620;50.050;8.690;2022-09-30T07:22:39;6.50;;;4.87;;
22907;SDS011;11620;50.050;8.690;2022-09-30T07:25:23;8.97;;;4.97;;
22907;SDS011;11620;50.050;8.690;2022-09-30T07:28:08;6.70;;;4.80;;
22907;SDS011;11620;50.050;8.690;2022-09-30T07:30:53;7.10;;;4.67;;
22907;SDS011;11620;50.050;8.690;2022-09-30T07:33:39;9.53;;;4.93;;
22907;SDS011;11620;50.050;8.690;2022-09-30T07:36:24;6.97;;;4.47;;
22907;SDS011;11620;50.050;8.690;2022-09-30T07:39:15;8.53;;;4.93;;
22907;SDS011;11620;50.050;8.690;2022-09-30T07:41:59;5.00;;;4.17;;
22907;SDS011;11620;50.050;8.690;2022-09-30T07:44:45;8.07;;;4.87;;
22907;SDS011;11620;50.050;8.690;2022-09-30T07:47:31;8.13;;;4.80;;
22907;SDS011;11620;50.050;8.690;2022-09-30T07:50:15;5.87;;;4.67;;
22907;SDS011;11620;50.050;8.690;2022-09-30T07:53:00;6.40;;;4.57;;
22907;SDS011;11620;50.050;8.690;2022-09-30T07:55:44;5.53;;;4.37;;
22907;SDS011;11620;50.050;8.690;2022-09-30T07:58:29;6.20;;;4.47;;
22907;SDS011;11620;50.050;8.690;2022-09-30T08:01:14;5.30;;;4.17;;
22907;SDS011;11620;50.050;8.690;2022-09-30T08:04:00;5.10;;;4.27;;
22907;SDS011;11620;50.050;8.690;2022-09-30T08:06:47;6.90;;;4.30;;
22907;SDS011;11620;50.050;8.690;2022-09-30T08:09:34;7.43;;;4.33;;
22907;SDS011;11620;50.050;8.690;2022-09-30T08:12:18;5.30;;;4.30;;
22907;SDS011;11620;50.050;8.690;2022-09-30T08:15:03;6.97;;;4.30;;
22907;SDS011;11620;50.050;8.690;2022-09-30T08:17:48;5.23;;;3.70;;
22907;SDS011;11620;50.050;8.690;2022-09-30T08:20:33;6.63;;;3.63;;
22907;SDS011;11620;50.050;8.690;2022-09-30T08:23:17;5.67;;;4.30;;
22907;SDS011;11620;50.050;8.690;2022-09-30T08:26:03;10.23;;;7.50;;
22907;SDS011;11620;50.050;8.690;2022-09-30T08:28:49;4.63;;;4.20;;
22907;SDS011;11620;50.050;8.690;2022-09-30T08:31:33;8.00;;;4.57;;
22907;SDS011;11620;50.050;8.690;2022-09-30T08:34:18;7.40;;;4.37;;
22907;SDS011;11620;50.050;8.690;2022-09-30T08:37:03;4.80;;;3.77;;
22907;SDS011;11620;50.050;8.690;2022-09-30T08:39:47;6.07;;;4.22;;
22907;SDS011;11620;50.050;8.690;2022-09-30T08:42:45;14.75;;;10.35;;
22907;SDS011;11620;50.050;8.690;2022-09-30T08:51:29;6.63;;;4.43;;
22907;SDS011;11620;50.050;8.690;2022-09-30T08:54:35;3.83;;;3.47;;
22907;SDS011;11620;50.050;8.690;2022-09-30T08:57:20;4.05;;;3.45;;
22907;SDS011;11620;50.050;8.690;2022-09-30T09:00:07;3.88;;;3.58;;
22907;SDS011;11620;50.050;8.690;2022-09-30T09:02:56;5.95;;;3.80;;
22907;SDS011;11620;50.050;8.690;2022-09-30T09:05:49;4.10;;;3.60;;
22907;SDS011;11620;50.050;8.690;2022-09-30T09:24:16;5.97;;;4.55;;
22907;SDS011;11620;50.050;8.690;2022-09-30T09:27:24;6.07;;;3.47;;
22907;SDS011;11620;50.050;8.690;2022-09-30T09:30:15;4.15;;;3.50;;
22907;SDS011;11620;50.050;8.690;2022-09-30T09:33:13;4.25;;;2.95;;
22907;SDS011;11620;50.050;8.690;2022-09-30T09:45:21;6.03;;;3.40;;
22907;SDS011;11620;50.050;8.690;2022-09-30T09:48:12;5.75;;;3.83;;
22907;SDS011;11620;50.050;8.690;2022-09-30T09:53:53;3.58;;;3.10;;
22907;SDS011;11620;50.050;8.690;2022-09-30T09:56:42;5.82;;;3.13;;
22907;SDS011;11620;50.050;8.690;2022-09-30T09:59:26;7.50;;;4.18;;
22907;SDS011;11620;50.050;8.690;2022-09-30T10:02:25;3.67;;;3.10;;
22907;SDS011;11620;50.050;8.690;2022-09-30T10:05:21;5.68;;;3.05;;
22907;SDS011;11620;50.050;8.690;2022-09-30T10:11:04;2.97;;;2.72;;
22907;SDS011;11620;50.050;8.690;2022-09-30T10:13:51;5.35;;;3.28;;
22907;SDS011;11620;50.050;8.690;2022-09-30T10:16:40;6.57;;;4.80;;
22907;SDS011;11620;50.050;8.690;2022-09-30T10:19:26;4.00;;;3.28;;
22907;SDS011;11620;50.050;8.690;2022-09-30T10:27:58;4.32;;;3.03;;
22907;SDS011;11620;50.050;8.690;2022-09-30T10:30:45;5.03;;;4.13;;
22907;SDS011;11620;50.050;8.690;2022-09-30T10:33:35;4.88;;;3.63;;
22907;SDS011;11620;50.050;8.690;2022-09-30T10:36:32;10.88;;;9.05;;
22907;SDS011;11620;50.050;8.690;2022-09-30T10:39:23;5.43;;;2.83;;
22907;SDS011;11620;50.050;8.690;2022-09-30T10:42:26;5.32;;;2.95;;
22907;SDS011;11620;50.050;8.690;2022-09-30T10:48:04;3.53;;;2.45;;
22907;SDS011;11620;50.050;8.690;2022-09-30T10:50:51;4.20;;;2.58;;
22907;SDS011;11620;50.050;8.690;2022-09-30T10:53:38;6.53;;;3.15;;
22907;SDS011;11620;50.050;8.690;2022-09-30T10:56:41;3.78;;;2.50;;
22907;SDS011;11620;50.050;8.690;2022-09-30T10:59:45;2.80;;;1.52;;
22907;SDS011;11620;50.050;8.690;2022-09-30T11:05:32;2.88;;;1.80;;
22907;SDS011;11620;50.050;8.690;2022-09-30T11:08:47;1.67;;;1.52;;
22907;SDS011;11620;50.050;8.690;2022-09-30T11:11:39;1.70;;;1.50;;
22907;SDS011;11620;50.050;8.690;2022-09-30T11:14:29;2.78;;;1.75;;
22907;SDS011;11620;50.050;8.690;2022-09-30T11:20:30;4.30;;;2.30;;
22907;SDS011;11620;50.050;8.690;2022-09-30T11:23:35;3.20;;;2.28;;
22907;SDS011;11620;50.050;8.690;2022-09-30T11:35:55;4.18;;;2.42;;
22907;SDS011;11620;50.050;8.690;2022-09-30T11:45:37;2.40;;;1.98;;
22907;SDS011;11620;50.050;8.690;2022-09-30T11:51:22;2.55;;;1.90;;
22907;SDS011;11620;50.050;8.690;2022-09-30T11:54:26;2.80;;;1.40;;
22907;SDS011;11620;50.050;8.690;2022-09-30T11:57:23;2.10;;;1.48;;
22907;SDS011;11620;50.050;8.690;2022-09-30T12:00:16;4.63;;;1.90;;
22907;SDS011;11620;50.050;8.690;2022-09-30T12:03:06;6.10;;;2.25;;
22907;SDS011;11620;50.050;8.690;2022-09-30T12:06:01;2.00;;;1.80;;
22907;SDS011;11620;50.050;8.690;2022-09-30T12:08:52;2.47;;;1.95;;
22907;SDS011;11620;50.050;8.690;2022-09-30T12:11:44;4.13;;;2.05;;
22907;SDS011;11620;50.050;8.690;2022-09-30T12:26:29;3.60;;;1.88;;
22907;SDS011;11620;50.050;8.690;2022-09-30T12:32:31;3.13;;;1.65;;
22907;SDS011;11620;50.050;8.690;2022-09-30T12:42:09;2.33;;;1.70;;
22907;SDS011;11620;50.050;8.690;2022-09-30T12:45:38;3.70;;;2.20;;
22907;SDS011;11620;50.050;8.690;2022-09-30T12:48:26;8.27;;;3.55;;
22907;SDS011;11620;50.050;8.690;2022-09-30T12:51:33;4.15;;;2.28;;
22907;SDS011;11620;50.050;8.690;2022-09-30T12:54:25;5.40;;;1.70;;
22907;SDS011;11620;50.050;8.690;2022-09-30T12:57:10;2.05;;;1.70;;
22907;SDS011;11620;50.050;8.690;2022-09-30T13:00:04;2.95;;;1.75;;
22907;SDS011;11620;50.050;8.690;2022-09-30T13:03:08;2.72;;;1.50;;
22907;SDS011;11620;50.050;8.690;2022-09-30T13:06:02;24.67;;;16.63;;
22907;SDS011;11620;50.050;8.690;2022-09-30T13:14:42;12.85;;;9.18;;
22907;SDS011;11620;50.050;8.690;2022-09-30T13:17:28;6.15;;;4.70;;
22907;SDS011;11620;50.050;8.690;2022-09-30T13:20:48;2.60;;;1.60;;
22907;SDS011;11620;50.050;8.690;2022-09-30T13:23:44;3.35;;;1.67;;
22907;SDS011;11620;50.050;8.690;2022-09-30T13:26:36;3.10;;;1.88;;
22907;SDS011;11620;50.050;8.690;2022-09-30T13:32:28;1.80;;;1.20;;
22907;SDS011;11620;50.050;8.690;2022-09-30T13:38:31;2.10;;;1.67;;
22907;SDS011;11620;50.050;8.690;2022-09-30T13:41:20;2.20;;;1.30;;
22907;SDS011;11620;50.050;8.690;2022-09-30T13:44:13;1.63;;;1.42;;
22907;SDS011;11620;50.050;8.690;2022-09-30T13:47:14;1.90;;;1.30;;
22907;SDS011;11620;50.050;8.690;2022-09-30T13:53:14;1.75;;;1.30;;
22907;SDS011;11620;50.050;8.690;2022-09-30T13:56:24;1.83;;;1.60;;
22907;SDS011;11620;50.050;8.690;2022-09-30T14:05:21;1.95;;;1.60;;
22907;SDS011;11620;50.050;8.690;2022-09-30T14:08:39;2.30;;;1.40;;
22907;SDS011;11620;50.050;8.690;2022-09-30T14:21:33;6.95;;;1.70;;
22907;SDS011;11620;50.050;8.690;2022-09-30T14:24:29;1.60;;;1.45;;
22907;SDS011;11620;50.050;8.690;2022-09-30T14:30:21;2.92;;;1.92;;
22907;SDS011;11620;50.050;8.690;2022-09-30T14:33:14;2.95;;;1.58;;
22907;SDS011;11620;50.050;8.690;2022-09-30T14:36:12;2.83;;;1.80;;
22907;SDS011;11620;50.050;8.690;2022-09-30T14:39:01;5.75;;;1.60;;
22907;SDS011;11620;50.050;8.690;2022-09-30T14:41:52;2.00;;;1.90;;
22907;SDS011;11620;50.050;8.690;2022-09-30T14:44:41;2.95;;;1.67;;
22907;SDS011;11620;50.050;8.690;2022-09-30T14:47:28;2.30;;;1.77;;
22907;SDS011;11620;50.050;8.690;2022-09-30T14:50:21;3.10;;;2.30;;
22907;SDS011;11620;50.050;8.690;2022-09-30T14:53:24;1.95;;;1.50;;
22907;SDS011;11620;50.050;8.690;2022-09-30T14:56:20;6.80;;;1.80;;
22907;SDS011;11620;50.050;8.690;2022-09-30T14:59:16;4.00;;;1.80;;
22907;SDS011;11620;50.050;8.690;2022-09-30T15:02:13;4.10;;;1.33;;
22907;SDS011;11620;50.050;8.690;2022-09-30T15:05:08;5.70;;;1.40;;
22907;SDS011;11620;50.050;8.690;2022-09-30T15:07:58;5.00;;;1.60;;
22907;SDS011;11620;50.050;8.690;2022-09-30T15:10:48;2.15;;;1.50;;
22907;SDS011;11620;50.050;8.690;2022-09-30T15:13:39;3.03;;;1.55;;
22907;SDS011;11620;50.050;8.690;2022-09-30T15:16:27;1.77;;;1.40;;
22907;SDS011;11620;50.050;8.690;2022-09-30T15:19:21;4.45;;;2.08;;
22907;SDS011;11620;50.050;8.690;2022-09-30T15:22:11;8.00;;;5.70;;
22907;SDS011;11620;50.050;8.690;2022-09-30T15:24:58;3.35;;;2.35;;
22907;SDS011;11620;50.050;8.690;2022-09-30T15:27:45;3.78;;;2.83;;
22907;SDS011;11620;50.050;8.690;2022-09-30T15:30:32;2.83;;;1.73;;
22907;SDS011;11620;50.050;8.690;2022-09-30T15:33:20;2.78;;;1.80;;
22907;SDS011;11620;50.050;8.690;2022-09-30T15:36:13;2.38;;;1.52;;
22907;SDS011;11620;50.050;8.690;2022-09-30T15:39:02;1.73;;;1.50;;
22907;SDS011;11620;50.050;8.690;2022-09-30T15:41:50;2.22;;;1.73;;
22907;SDS011;11620;50.050;8.690;2022-09-30T15:44:37;1.88;;;1.73;;
22907;SDS011;11620;50.050;8.690;2022-09-30T15:47:25;3.60;;;1.75;;
22907;SDS011;11620;50.050;8.690;2022-09-30T15:53:21;2.60;;;1.65;;
22907;SDS011;11620;50.050;8.690;2022-09-30T15:59:02;3.83;;;1.48;;
22907;SDS011;11620;50.050;8.690;2022-09-30T16:01:50;3.28;;;1.58;;
22907;SDS011;11620;50.050;8.690;2022-09-30T16:04:41;1.95;;;1.70;;
22907;SDS011;11620;50.050;8.690;2022-09-30T16:07:29;2.85;;;1.90;;
22907;SDS011;11620;50.050;8.690;2022-09-30T16:10:17;3.08;;;1.77;;
22907;SDS011;11620;50.050;8.690;2022-09-30T16:13:05;4.13;;;1.67;;
22907;SDS011;11620;50.050;8.690;2022-09-30T16:15:52;2.85;;;1.70;;
22907;SDS011;11620;50.050;8.690;2022-09-30T16:18:40;2.75;;;1.63;;
22907;SDS011;11620;50.050;8.690;2022-09-30T16:21:45;5.18;;;2.13;;
22907;SDS011;11620;50.050;8.690;2022-09-30T16:27:22;3.33;;;1.70;;
22907;SDS011;11620;50.050;8.690;2022-09-30T16:30:14;2.00;;;1.83;;
22907;SDS011;11620;50.050;8.690;2022-09-30T16:33:03;3.38;;;1.80;;
22907;SDS011;11620;50.050;8.690;2022-09-30T16:35:50;1.70;;;1.33;;
22907;SDS011;11620;50.050;8.690;2022-09-30T16:38:37;4.95;;;2.00;;
22907;SDS011;11620;50.050;8.690;2022-09-30T16:41:23;3.58;;;1.77;;
22907;SDS011;11620;50.050;8.690;2022-09-30T16:44:10;2.65;;;1.65;;
22907;SDS011;11620;50.050;8.690;2022-09-30T16:46:57;3.63;;;1.80;;
22907;SDS011;11620;50.050;8.690;2022-09-30T16:49:46;5.40;;;2.45;;
22907;SDS011;11620;50.050;8.690;2022-09-30T16:52:32;2.35;;;1.67;;
22907;SDS011;11620;50.050;8.690;2022-09-30T16:55:19;3.05;;;1.90;;
22907;SDS011;11620;50.050;8.690;2022-09-30T16:58:05;2.45;;;2.15;;
22907;SDS011;11620;50.050;8.690;2022-09-30T17:00:55;2.40;;;1.90;;
22907;SDS011;11620;50.050;8.690;2022-09-30T17:03:45;3.20;;;2.20;;
22907;SDS011;11620;50.050;8.690;2022-09-30T17:06:32;4.95;;;2.10;;
22907;SDS011;11620;50.050;8.690;2022-09-30T17:09:18;3.83;;;2.13;;
22907;SDS011;11620;50.050;8.690;2022-09-30T17:12:05;2.20;;;1.92;;
22907;SDS011;11620;50.050;8.690;2022-09-30T17:14:52;3.88;;;1.80;;
22907;SDS011;11620;50.050;8.690;2022-09-30T17:17:38;3.22;;;1.85;;
22907;SDS011;11620;50.050;8.690;2022-09-30T17:20:25;4.53;;;2.28;;
22907;SDS011;11620;50.050;8.690;2022-09-30T17:23:11;3.03;;;2.10;;
22907;SDS011;11620;50.050;8.690;2022-09-30T17:25:58;9.23;;;6.53;;
22907;SDS011;11620;50.050;8.690;2022-09-30T17:28:44;2.92;;;2.42;;
22907;SDS011;11620;50.050;8.690;2022-09-30T17:31:30;3.17;;;2.05;;
22907;SDS011;11620;50.050;8.690;2022-09-30T17:34:17;4.68;;;2.40;;
22907;SDS011;11620;50.050;8.690;2022-09-30T17:37:03;4.72;;;2.50;;
22907;SDS011;11620;50.050;8.690;2022-09-30T17:39:49;5.32;;;2.95;;
22907;SDS011;11620;50.050;8.690;2022-09-30T17:42:36;5.78;;;2.50;;
22907;SDS011;11620;50.050;8.690;2022-09-30T17:45:42;3.35;;;2.35;;
22907;SDS011;11620;50.050;8.690;2022-09-30T17:48:30;4.15;;;2.53;;
22907;SDS011;11620;50.050;8.690;2022-09-30T17:51:17;3.92;;;2.80;;
22907;SDS011;11620;50.050;8.690;2022-09-30T17:54:04;8.68;;;2.70;;
22907;SDS011;11620;50.050;8.690;2022-09-30T17:56:51;5.57;;;2.60;;
22907;SDS011;11620;50.050;8.690;2022-09-30T17:59:37;3.90;;;2.78;;
22907;SDS011;11620;50.050;8.690;2022-09-30T18:02:25;5.88;;;2.90;;
22907;SDS011;11620;50.050;8.690;2022-09-30T18:05:11;4.28;;;2.75;;
22907;SDS011;11620;50.050;8.690;2022-09-30T18:07:59;4.90;;;2.90;;
22907;SDS011;11620;50.050;8.690;2022-09-30T18:10:45;6.43;;;3.80;;
22907;SDS011;11620;50.050;8.690;2022-09-30T18:13:31;5.07;;;3.35;;
22907;SDS011;11620;50.050;8.690;2022-09-30T18:16:18;5.03;;;3.63;;
22907;SDS011;11620;50.050;8.690;2022-09-30T18:19:05;6.97;;;2.83;;
22907;SDS011;11620;50.050;8.690;2022-09-30T18:21:51;6.35;;;3.50;;
22907;SDS011;11620;50.050;8.690;2022-09-30T18:24:41;6.13;;;3.58;;
22907;SDS011;11620;50.050;8.690;2022-09-30T18:27:46;6.32;;;3.38;;
22907;SDS011;11620;50.050;8.690;2022-09-30T18:30:41;7.35;;;3.47;;
22907;SDS011;11620;50.050;8.690;2022-09-30T18:33:28;7.10;;;3.50;;
22907;SDS011;11620;50.050;8.690;2022-09-30T18:36:14;7.75;;;4.65;;
22907;SDS011;11620;50.050;8.690;2022-09-30T18:39:04;6.18;;;4.63;;
22907;SDS011;11620;50.050;8.690;2022-09-30T18:41:50;5.95;;;3.95;;
22907;SDS011;11620;50.050;8.690;2022-09-30T18:44:36;6.63;;;4.47;;
22907;SDS011;11620;50.050;8.690;2022-09-30T18:47:23;9.65;;;4.00;;
22907;SDS011;11620;50.050;8.690;2022-09-30T18:50:11;6.50;;;3.55;;
22907;SDS011;11620;50.050;8.690;2022-09-30T18:52:58;6.57;;;3.78;;
22907;SDS011;11620;50.050;8.690;2022-09-30T18:55:47;6.53;;;3.55;;
22907;SDS011;11620;50.050;8.690;2022-09-30T18:58:33;5.83;;;3.93;;
22907;SDS011;11620;50.050;8.690;2022-09-30T19:01:21;10.90;;;3.93;;
22907;SDS011;11620;50.050;8.690;2022-09-30T19:04:08;7.27;;;3.73;;
22907;SDS011;11620;50.050;8.690;2022-09-30T19:06:55;4.60;;;3.50;;
22907;SDS011;11620;50.050;8.690;2022-09-30T19:09:42;5.83;;;3.67;;
22907;SDS011;11620;50.050;8.690;2022-09-30T19:12:34;6.47;;;4.03;;
22907;SDS011;11620;50.050;8.690;2022-09-30T19:15:21;5.90;;;3.53;;
22907;SDS011;11620;50.050;8.690;2022-09-30T19:18:08;6.85;;;4.05;;
22907;SDS011;11620;50.050;8.690;2022-09-30T19:20:55;8.57;;;3.67;;
22907;SDS011;11620;50.050;8.690;2022-09-30T19:23:41;9.88;;;3.83;;
22907;SDS011;11620;50.050;8.690;2022-09-30T19:26:28;5.18;;;3.60;;
22907;SDS011;11620;50.050;8.690;2022-09-30T19:29:15;8.30;;;4.10;;
22907;SDS011;11620;50.050;8.690;2022-09-30T19:32:03;6.03;;;4.30;;
22907;SDS011;11620;50.050;8.690;2022-09-30T19:34:50;5.87;;;4.30;;
22907;SDS011;11620;50.050;8.690;2022-09-30T19:37:39;8.43;;;4.05;;
22907;SDS011;11620;50.050;8.690;2022-09-30T19:40:28;6.23;;;4.20;;
22907;SDS011;11620;50.050;8.690;2022-09-30T19:43:16;11.35;;;4.00;;
22907;SDS011;11620;50.050;8.690;2022-09-30T19:46:04;6.80;;;4.10;;
22907;SDS011;11620;50.050;8.690;2022-09-30T19:48:51;7.87;;;3.93;;
22907;SDS011;11620;50.050;8.690;2022-09-30T19:51:38;6.63;;;4.03;;
22907;SDS011;11620;50.050;8.690;2022-09-30T19:54:24;7.30;;;3.97;;
22907;SDS011;11620;50.050;8.690;2022-09-30T19:57:10;8.17;;;3.63;;
22907;SDS011;11620;50.050;8.690;2022-09-30T19:59:57;5.70;;;4.10;;
22907;SDS011;11620;50.050;8.690;2022-09-30T20:02:44;5.00;;;3.20;;
22907;SDS011;11620;50.050;8.690;2022-09-30T20:05:30;4.68;;;3.75;;
22907;SDS011;11620;50.050;8.690;2022-09-30T20:08:17;5.63;;;3.90;;